createdAt,value
2018-09-02T00:02:24.286Z,21.80
2018-09-02T00:04:54.676Z,21.70
2018-09-02T00:07:23.857Z,21.70
2018-09-02T00:09:52.881Z,21.60
2018-09-02T00:12:23.229Z,21.60
2018-09-02T00:14:52.434Z,21.60
2018-09-02T00:17:21.542Z,21.50
2018-09-02T00:19:51.447Z,21.40
2018-09-02T00:22:20.765Z,21.50
2018-09-02T00:24:49.811Z,21.50
2018-09-02T00:27:19.105Z,21.50
2018-09-02T00:29:48.211Z,21.50
2018-09-02T00:32:17.238Z,21.50
2018-09-02T00:34:46.266Z,21.50
2018-09-02T00:37:15.385Z,21.60
2018-09-02T00:39:44.372Z,21.60
2018-09-02T00:42:13.914Z,21.60
2018-09-02T00:44:43.005Z,21.70
2018-09-02T00:47:12.023Z,21.70
2018-09-02T00:49:41.009Z,21.70
2018-09-02T00:52:10.078Z,21.60
2018-09-02T00:54:39.156Z,21.60
2018-09-02T00:57:08.356Z,21.60
2018-09-02T00:59:37.860Z,21.70
2018-09-02T01:02:07.149Z,21.60
2018-09-02T01:04:36.534Z,21.60
2018-09-02T01:07:05.963Z,21.40
2018-09-02T01:09:35.052Z,21.30
2018-09-02T01:12:04.078Z,21.20
2018-09-02T01:14:33.196Z,21.20
2018-09-02T01:17:04.077Z,21.10
2018-09-02T01:19:33.247Z,21.00
2018-09-02T01:22:02.360Z,21.00
2018-09-02T01:24:32.145Z,21.00
2018-09-02T01:27:01.813Z,21.00
2018-09-02T01:29:30.921Z,21.00
2018-09-02T01:32:00.182Z,20.90
2018-09-02T01:34:29.061Z,20.90
2018-09-02T01:36:58.175Z,20.80
2018-09-02T01:39:28.514Z,20.90
2018-09-02T01:41:58.311Z,20.90
2018-09-02T01:44:27.340Z,20.90
2018-09-02T01:46:57.301Z,20.80
2018-09-02T01:49:26.411Z,20.70
2018-09-02T01:51:55.557Z,20.80
2018-09-02T01:54:24.753Z,20.80
2018-09-02T01:56:53.553Z,20.70
2018-09-02T01:59:22.652Z,20.70
2018-09-02T02:01:51.810Z,20.70
2018-09-02T02:04:20.978Z,20.60
2018-09-02T02:06:50.179Z,20.60
2018-09-02T02:09:21.138Z,20.60
2018-09-02T02:11:50.262Z,20.60
2018-09-02T02:14:19.378Z,20.50
2018-09-02T02:16:49.508Z,20.50
2018-09-02T02:19:18.614Z,20.50
2018-09-02T02:21:47.937Z,20.50
2018-09-02T02:24:18.478Z,20.50
2018-09-02T02:26:47.633Z,20.40
2018-09-02T02:29:16.712Z,20.40
2018-09-02T02:31:46.805Z,20.40
2018-09-02T02:34:16.165Z,20.40
2018-09-02T02:36:45.369Z,20.30
2018-09-02T02:39:14.720Z,20.40
2018-09-02T02:41:44.012Z,20.40
2018-09-02T02:44:13.032Z,20.40
2018-09-02T02:46:43.663Z,20.30
2018-09-02T02:49:12.779Z,20.30
2018-09-02T02:51:42.005Z,20.40
2018-09-02T02:54:12.127Z,20.40
2018-09-02T02:56:41.146Z,20.30
2018-09-02T02:59:10.160Z,20.30
2018-09-02T03:01:39.204Z,20.30
2018-09-02T03:04:08.292Z,20.30
2018-09-02T03:06:37.486Z,20.30
2018-09-02T03:09:08.296Z,20.30
2018-09-02T03:11:38.174Z,20.30
2018-09-02T03:14:07.464Z,20.30
2018-09-02T03:16:36.782Z,20.30
2018-09-02T03:19:05.937Z,20.30
2018-09-02T03:21:35.861Z,20.30
2018-09-02T03:24:05.109Z,20.30
2018-09-02T03:26:34.189Z,20.40
2018-09-02T03:29:03.479Z,20.30
2018-09-02T03:31:32.495Z,20.30
2018-09-02T03:34:01.622Z,20.20
2018-09-02T03:36:30.983Z,20.20
2018-09-02T03:39:00.063Z,20.20
2018-09-02T03:41:29.070Z,20.00
2018-09-02T03:43:59.656Z,20.00
2018-09-02T03:46:28.828Z,20.00
2018-09-02T03:48:57.760Z,19.90
2018-09-02T03:51:27.285Z,19.90
2018-09-02T03:53:56.366Z,19.80
2018-09-02T03:56:25.597Z,19.80
2018-09-02T03:58:55.158Z,19.80
2018-09-02T04:01:24.386Z,19.90
2018-09-02T04:03:53.560Z,19.90
2018-09-02T04:06:22.870Z,19.90
2018-09-02T04:08:52.062Z,19.90
2018-09-02T04:11:21.168Z,20.00
2018-09-02T04:13:51.783Z,20.10
2018-09-02T04:16:21.054Z,20.10
2018-09-02T04:18:50.362Z,20.10
2018-09-02T04:21:21.354Z,20.20
2018-09-02T04:23:50.431Z,20.20
2018-09-02T04:26:19.316Z,20.30
2018-09-02T04:28:50.432Z,20.40
2018-09-02T04:31:19.715Z,20.40
2018-09-02T04:33:48.881Z,20.40
2018-09-02T04:36:19.051Z,20.40
2018-09-02T04:38:48.285Z,20.50
2018-09-02T04:41:17.434Z,20.50
2018-09-02T04:43:48.018Z,20.50
2018-09-02T04:46:17.057Z,20.60
2018-09-02T04:48:46.115Z,20.70
2018-09-02T04:51:16.558Z,20.70
2018-09-02T04:53:45.513Z,20.80
2018-09-02T04:56:14.526Z,20.80
2018-09-02T04:58:47.116Z,20.90
2018-09-02T05:01:16.213Z,20.90
2018-09-02T05:03:45.355Z,21.00
2018-09-02T05:06:15.302Z,21.10
2018-09-02T05:08:44.493Z,21.20
2018-09-02T05:11:14.016Z,21.30
2018-09-02T05:13:43.177Z,21.30
2018-09-02T05:16:12.338Z,21.40
2018-09-02T05:18:41.574Z,21.50
2018-09-02T05:21:10.678Z,21.60
2018-09-02T05:23:39.786Z,21.60
2018-09-02T05:26:09.208Z,21.70
2018-09-02T05:28:38.199Z,21.80
2018-09-02T05:31:07.234Z,21.90
2018-09-02T05:33:36.943Z,22.00
2018-09-02T05:36:06.360Z,22.00
2018-09-02T05:38:35.727Z,22.10
2018-09-02T05:41:04.928Z,22.10
2018-09-02T05:43:34.019Z,22.20
2018-09-02T05:46:03.229Z,22.30
2018-09-02T05:48:33.240Z,22.40
2018-09-02T05:51:02.072Z,22.50
2018-09-02T05:53:31.297Z,22.60
2018-09-02T05:56:00.433Z,22.80
2018-09-02T05:58:29.513Z,23.00
2018-09-02T06:00:58.718Z,23.30
2018-09-02T06:03:28.194Z,23.60
2018-09-02T06:05:58.074Z,23.80
2018-09-02T06:08:27.017Z,24.00
2018-09-02T06:10:56.761Z,24.00
2018-09-02T06:13:25.617Z,24.30
2018-09-02T06:15:54.636Z,24.70
2018-09-02T06:18:25.178Z,25.10
2018-09-02T06:20:54.190Z,25.50
2018-09-02T06:23:23.292Z,25.80
2018-09-02T06:25:52.245Z,26.20
2018-09-02T06:28:21.213Z,26.70
2018-09-02T06:30:50.330Z,27.00
2018-09-02T06:33:20.185Z,27.50
2018-09-02T06:35:49.287Z,28.10
2018-09-02T06:38:18.498Z,28.80
2018-09-02T06:40:48.285Z,29.60
2018-09-02T06:43:17.327Z,30.50
2018-09-02T06:45:46.534Z,31.50
2018-09-02T06:48:19.815Z,32.40
2018-09-02T06:50:49.220Z,33.30
2018-09-02T06:53:18.246Z,34.20
2018-09-02T06:55:47.048Z,35.20
2018-09-02T06:58:16.112Z,36.20
2018-09-02T07:00:45.214Z,37.30
2018-09-02T07:03:15.073Z,38.00
2018-09-02T07:05:44.286Z,38.60
2018-09-02T07:08:13.791Z,39.30
2018-09-02T07:10:43.512Z,40.10
2018-09-02T07:13:12.712Z,40.60
2018-09-02T07:15:41.849Z,41.00
2018-09-02T07:18:10.872Z,41.70
2018-09-02T07:20:40.079Z,42.30
2018-09-02T07:23:10.518Z,42.80
2018-09-02T07:25:39.621Z,43.40
2018-09-02T07:28:08.725Z,43.80
2018-09-02T07:30:38.964Z,44.40
2018-09-02T07:33:07.785Z,44.80
2018-09-02T07:35:36.622Z,45.20
2018-09-02T07:38:06.762Z,45.50
2018-09-02T07:40:35.549Z,45.80
2018-09-02T07:43:04.360Z,46.20
2018-09-02T07:45:34.391Z,46.50
2018-09-02T07:48:03.195Z,46.90
2018-09-02T07:50:32.011Z,46.90
2018-09-02T07:53:03.665Z,47.40
2018-09-02T07:55:32.470Z,47.70
2018-09-02T07:58:01.250Z,47.90
2018-09-02T08:00:30.298Z,48.20
2018-09-02T08:02:59.383Z,48.30
2018-09-02T08:05:28.505Z,48.50
2018-09-02T08:07:57.840Z,48.50
2018-09-02T08:10:26.930Z,48.60
2018-09-02T08:12:57.418Z,49.00
2018-09-02T08:15:26.680Z,49.30
2018-09-02T08:17:55.805Z,49.30
2018-09-02T08:20:25.100Z,49.30
2018-09-02T08:22:55.693Z,49.10
2018-09-02T08:25:25.409Z,49.20
2018-09-02T08:27:54.479Z,49.30
2018-09-02T08:30:25.895Z,49.70
2018-09-02T08:32:55.012Z,49.90
2018-09-02T08:35:24.185Z,50.30
2018-09-02T08:37:53.339Z,50.40
2018-09-02T08:40:22.321Z,50.40
2018-09-02T08:42:51.095Z,50.30
2018-09-02T08:45:25.346Z,50.50
2018-09-02T08:47:54.207Z,50.60
2018-09-02T08:50:23.078Z,50.90
2018-09-02T08:52:52.678Z,51.00
2018-09-02T08:55:21.695Z,51.20
2018-09-02T08:57:50.845Z,51.50
2018-09-02T09:00:20.349Z,52.00
2018-09-02T09:02:50.286Z,52.30
2018-09-02T09:05:19.589Z,52.60
2018-09-02T09:07:49.064Z,52.80
2018-09-02T09:10:17.909Z,53.10
2018-09-02T09:12:47.026Z,53.00
2018-09-02T09:15:16.153Z,53.00
2018-09-02T09:17:45.269Z,53.30
2018-09-02T09:20:14.105Z,53.40
2018-09-02T09:22:42.938Z,53.30
2018-09-02T09:25:12.041Z,53.50
2018-09-02T09:27:41.129Z,53.80
2018-09-02T09:30:10.618Z,54.40
2018-09-02T09:32:40.199Z,54.90
2018-09-02T09:35:09.251Z,55.10
2018-09-02T09:37:38.304Z,54.50
2018-09-02T09:40:07.531Z,53.80
2018-09-02T09:42:36.726Z,52.90
2018-09-02T09:45:05.922Z,52.30
2018-09-02T09:47:35.016Z,52.00
2018-09-02T09:50:04.094Z,51.40
2018-09-02T09:52:33.252Z,50.80
2018-09-02T09:55:09.329Z,50.40
2018-09-02T09:57:38.433Z,50.20
2018-09-02T10:00:07.654Z,50.20
2018-09-02T10:02:37.990Z,49.70
2018-09-02T10:05:07.205Z,48.50
2018-09-02T10:07:36.109Z,48.10
2018-09-02T10:10:05.463Z,48.10
2018-09-02T10:12:34.653Z,47.30
2018-09-02T10:15:03.868Z,47.30
2018-09-02T10:17:32.892Z,47.50
2018-09-02T10:20:02.079Z,46.50
2018-09-02T10:22:32.823Z,46.00
2018-09-02T10:25:01.943Z,45.90
2018-09-02T10:27:31.127Z,45.40
2018-09-02T10:30:00.531Z,45.80
2018-09-02T10:32:36.202Z,45.40
2018-09-02T10:35:08.414Z,45.10
2018-09-02T10:37:38.162Z,45.60
2018-09-02T10:40:08.565Z,45.40
2018-09-02T10:42:37.371Z,45.00
2018-09-02T10:45:06.493Z,45.50
2018-09-02T10:47:35.355Z,45.30
2018-09-02T10:50:04.253Z,45.80
2018-09-02T10:52:33.049Z,45.70
2018-09-02T10:55:02.805Z,45.30
2018-09-02T10:57:31.983Z,45.60
2018-09-02T11:00:01.431Z,46.30
2018-09-02T11:02:30.604Z,46.60
2018-09-02T11:04:59.531Z,46.30
2018-09-02T11:07:31.147Z,45.90
2018-09-02T11:10:00.442Z,45.30
2018-09-02T11:12:29.599Z,45.90
2018-09-02T11:14:58.589Z,45.30
2018-09-02T11:17:27.742Z,44.70
2018-09-02T11:19:56.543Z,44.20
2018-09-02T11:22:25.576Z,43.30
2018-09-02T11:24:54.663Z,42.10
2018-09-02T11:27:23.801Z,40.70
2018-09-02T11:29:53.480Z,39.50
2018-09-02T11:32:22.624Z,38.40
2018-09-02T11:34:51.872Z,37.60
2018-09-02T11:37:20.903Z,36.80
2018-09-02T11:39:50.083Z,35.90
2018-09-02T11:42:23.158Z,35.10
2018-09-02T11:44:54.336Z,34.70
2018-09-02T11:47:23.780Z,34.40
2018-09-02T11:49:54.918Z,34.30
2018-09-02T11:52:25.386Z,34.20
2018-09-02T11:54:54.520Z,34.10
2018-09-02T11:57:26.194Z,33.70
2018-09-02T12:00:59.337Z,33.50
2018-09-02T12:03:30.712Z,33.30
2018-09-02T12:06:03.999Z,33.00
2018-09-02T12:08:34.384Z,32.80
2018-09-02T12:11:09.924Z,32.80
2018-09-02T12:13:39.837Z,32.60
2018-09-02T12:16:09.799Z,32.50
2018-09-02T12:18:38.979Z,32.40
2018-09-02T12:21:11.042Z,32.40
2018-09-02T12:23:40.219Z,32.30
2018-09-02T12:26:11.063Z,32.30
2018-09-02T12:28:42.987Z,32.20
2018-09-02T12:31:12.300Z,32.10
2018-09-02T12:33:41.301Z,32.10
2018-09-02T12:36:11.326Z,32.00
2018-09-02T12:38:42.174Z,31.90
2018-09-02T12:41:11.846Z,31.80
2018-09-02T12:43:40.888Z,31.80
2018-09-02T12:46:11.393Z,31.80
2018-09-02T12:48:40.529Z,31.70
2018-09-02T12:51:09.771Z,31.70
2018-09-02T12:53:39.003Z,31.60
2018-09-02T12:56:09.255Z,31.70
2018-09-02T12:58:38.849Z,31.70
2018-09-02T13:01:11.103Z,31.60
2018-09-02T13:03:40.106Z,31.60
2018-09-02T13:06:14.862Z,31.60
2018-09-02T13:08:45.211Z,31.50
2018-09-02T13:11:16.005Z,31.40
2018-09-02T13:13:45.599Z,31.40
2018-09-02T13:16:14.633Z,31.50
2018-09-02T13:18:43.912Z,31.50
2018-09-02T13:21:13.269Z,31.60
2018-09-02T13:23:46.058Z,31.60
2018-09-02T13:26:16.010Z,31.60
2018-09-02T13:28:45.269Z,31.60
2018-09-02T13:31:16.258Z,31.60
2018-09-02T13:33:45.084Z,31.70
2018-09-02T13:36:14.164Z,31.60
2018-09-02T13:38:43.459Z,31.50
2018-09-02T13:41:13.054Z,31.50
2018-09-02T13:43:42.997Z,31.60
2018-09-02T13:46:12.043Z,31.50
2018-09-02T13:48:40.823Z,31.50
2018-09-02T13:51:10.150Z,31.50
2018-09-02T13:53:39.112Z,31.40
2018-09-02T13:56:08.770Z,31.50
2018-09-02T13:58:39.336Z,31.50
2018-09-02T14:01:10.056Z,31.50
2018-09-02T14:03:38.789Z,31.50
2018-09-02T14:06:08.128Z,31.40
2018-09-02T14:08:37.158Z,31.40
2018-09-02T14:11:06.079Z,31.50
2018-09-02T14:13:36.046Z,31.50
2018-09-02T14:16:07.294Z,31.40
2018-09-02T14:18:37.181Z,31.40
2018-09-02T14:21:06.304Z,31.40
2018-09-02T14:23:35.210Z,31.40
2018-09-02T14:26:04.882Z,31.30
2018-09-02T14:28:34.750Z,31.30
2018-09-02T14:31:04.203Z,31.30
2018-09-02T14:33:33.068Z,31.30
2018-09-02T14:36:02.118Z,31.20
2018-09-02T14:38:31.837Z,31.20
2018-09-02T14:41:01.213Z,31.30
2018-09-02T14:43:30.650Z,31.30
2018-09-02T14:46:00.384Z,31.20
2018-09-02T14:48:29.176Z,31.10
2018-09-02T14:50:58.411Z,31.10
2018-09-02T14:53:28.900Z,31.00
2018-09-02T14:55:57.926Z,31.10
2018-09-02T14:58:26.972Z,31.10
2018-09-02T15:00:56.289Z,31.00
2018-09-02T15:03:25.229Z,31.00
2018-09-02T15:05:56.789Z,31.00
2018-09-02T15:08:26.304Z,31.00
2018-09-02T15:10:56.701Z,31.00
2018-09-02T15:13:25.774Z,30.90
2018-09-02T15:15:55.940Z,31.00
2018-09-02T15:18:24.945Z,30.90
2018-09-02T15:20:53.966Z,30.90
2018-09-02T15:23:24.569Z,30.90
2018-09-02T15:25:53.517Z,30.90
2018-09-02T15:28:22.777Z,30.90
2018-09-02T15:30:52.076Z,30.80
2018-09-02T15:33:22.342Z,30.80
2018-09-02T15:35:52.734Z,30.80
2018-09-02T15:38:23.356Z,30.70
2018-09-02T15:40:52.461Z,30.70
2018-09-02T15:43:21.618Z,30.70
2018-09-02T15:45:50.439Z,30.60
2018-09-02T15:48:19.356Z,30.60
2018-09-02T15:50:49.186Z,30.60
2018-09-02T15:53:18.574Z,30.60
2018-09-02T15:55:47.502Z,30.60
2018-09-02T15:58:16.504Z,30.50
2018-09-02T16:00:45.327Z,30.50
2018-09-02T16:03:14.528Z,30.50
2018-09-02T16:05:43.702Z,30.40
2018-09-02T16:08:13.056Z,30.40
2018-09-02T16:10:42.196Z,30.40
2018-09-02T16:13:11.297Z,30.40
2018-09-02T16:15:40.358Z,30.30
2018-09-02T16:18:09.491Z,30.30
2018-09-02T16:20:39.129Z,30.30
2018-09-02T16:23:07.980Z,30.20
2018-09-02T16:25:37.061Z,30.20
2018-09-02T16:28:05.930Z,30.10
2018-09-02T16:30:35.029Z,30.10
2018-09-02T16:33:04.155Z,30.00
2018-09-02T16:35:34.038Z,29.90
2018-09-02T16:38:03.210Z,29.90
2018-09-02T16:40:32.476Z,29.80
2018-09-02T16:43:02.948Z,29.80
2018-09-02T16:45:32.112Z,29.70
2018-09-02T16:48:01.200Z,29.60
2018-09-02T16:50:31.595Z,29.50
2018-09-02T16:53:00.568Z,29.40
2018-09-02T16:55:29.336Z,29.20
2018-09-02T16:57:58.613Z,29.10
2018-09-02T17:00:27.707Z,29.10
2018-09-02T17:02:57.140Z,29.00
2018-09-02T17:05:27.029Z,28.90
2018-09-02T17:07:55.859Z,28.80
2018-09-02T17:10:24.996Z,28.70
2018-09-02T17:12:54.106Z,28.60
2018-09-02T17:15:23.338Z,28.50
2018-09-02T17:17:52.517Z,28.40
2018-09-02T17:20:31.912Z,28.30
2018-09-02T17:23:06.117Z,28.30
2018-09-02T17:25:35.494Z,28.20
2018-09-02T17:28:04.719Z,28.10
2018-09-02T17:30:33.854Z,28.00
2018-09-02T17:33:03.858Z,28.00
2018-09-02T17:35:32.987Z,27.90
2018-09-02T17:38:02.118Z,27.80
2018-09-02T17:40:32.353Z,27.80
2018-09-02T17:43:01.630Z,27.70
2018-09-02T17:45:31.605Z,27.60
2018-09-02T17:48:01.015Z,27.50
2018-09-02T17:50:30.584Z,27.40
2018-09-02T17:52:59.746Z,27.30
2018-09-02T17:55:29.940Z,27.30
2018-09-02T17:57:58.832Z,27.20
2018-09-02T18:00:31.491Z,27.10
2018-09-02T18:03:00.703Z,27.00
2018-09-02T18:05:30.947Z,26.90
2018-09-02T18:08:00.239Z,26.80
2018-09-02T18:10:29.394Z,26.70
2018-09-02T18:12:58.591Z,26.60
2018-09-02T18:15:27.603Z,26.50
2018-09-02T18:17:56.715Z,26.40
2018-09-02T18:20:26.361Z,26.30
2018-09-02T18:22:56.329Z,26.20
2018-09-02T18:25:25.465Z,26.10
2018-09-02T18:27:57.333Z,25.90
2018-09-02T18:30:26.694Z,25.80
2018-09-02T18:35:25.823Z,25.80
2018-09-02T18:37:54.922Z,25.70
2018-09-02T18:40:24.040Z,25.60
2018-09-02T18:42:53.302Z,25.40
2018-09-02T18:45:23.074Z,25.30
2018-09-02T18:47:52.326Z,25.20
2018-09-02T18:50:21.552Z,25.10
2018-09-02T18:52:50.778Z,25.10
2018-09-02T18:55:19.950Z,25.00
2018-09-02T18:57:49.093Z,25.00
2018-09-02T19:00:18.071Z,24.90
2018-09-02T19:02:47.256Z,24.80
2018-09-02T19:05:17.309Z,24.80
2018-09-02T19:07:46.127Z,24.70
2018-09-02T19:10:15.347Z,24.70
2018-09-02T19:12:44.486Z,24.70
2018-09-02T19:15:13.786Z,24.70
2018-09-02T19:17:42.882Z,24.60
2018-09-02T19:20:12.661Z,24.60
2018-09-02T19:22:41.542Z,24.60
2018-09-02T19:25:10.369Z,24.60
2018-09-02T19:27:40.019Z,24.50
2018-09-02T19:30:09.272Z,24.50
2018-09-02T19:32:38.593Z,24.40
2018-09-02T19:35:09.151Z,24.40
2018-09-02T19:37:38.342Z,24.30
2018-09-02T19:40:07.980Z,24.30
2018-09-02T19:42:37.298Z,24.30
2018-09-02T19:45:07.013Z,24.20
2018-09-02T19:47:36.301Z,24.10
2018-09-02T19:50:05.799Z,24.20
2018-09-02T19:52:34.880Z,24.20
2018-09-02T19:55:03.974Z,24.10
2018-09-02T19:57:33.119Z,24.10
2018-09-02T20:00:02.318Z,24.10
2018-09-02T20:02:31.337Z,24.10
2018-09-02T20:05:00.702Z,24.00
2018-09-02T20:07:29.504Z,24.00
2018-09-02T20:09:58.703Z,24.00
2018-09-02T20:12:28.065Z,23.90
2018-09-02T20:14:57.259Z,23.90
2018-09-02T20:17:26.409Z,23.90
2018-09-02T20:19:55.470Z,23.90
2018-09-02T20:22:24.253Z,23.80
2018-09-02T20:24:53.048Z,23.80
2018-09-02T20:27:22.661Z,23.80
2018-09-02T20:29:51.449Z,23.80
2018-09-02T20:32:20.235Z,23.80
2018-09-02T20:34:50.231Z,23.70
2018-09-02T20:37:19.011Z,23.70
2018-09-02T20:39:47.881Z,23.60
2018-09-02T20:42:17.457Z,23.60
2018-09-02T20:44:46.355Z,23.70
2018-09-02T20:47:15.213Z,23.70
2018-09-02T20:49:47.479Z,23.70
2018-09-02T20:52:16.319Z,23.70
2018-09-02T20:54:45.173Z,23.70
2018-09-02T20:57:14.431Z,23.80
2018-09-02T20:59:43.514Z,23.80
2018-09-02T21:02:12.599Z,23.80
2018-09-02T21:04:44.393Z,23.70
2018-09-02T21:07:13.472Z,23.70
2018-09-02T21:09:42.645Z,23.70
2018-09-02T21:12:13.512Z,23.70
2018-09-02T21:14:44.033Z,23.70
2018-09-02T21:17:13.844Z,23.70
2018-09-02T21:19:46.000Z,23.60
2018-09-02T21:22:15.995Z,23.60
2018-09-02T21:24:45.940Z,23.60
2018-09-02T21:27:15.886Z,23.60
2018-09-02T21:29:47.126Z,23.60
2018-09-02T21:32:16.610Z,23.70
2018-09-02T21:34:46.463Z,23.70
2018-09-02T21:37:17.014Z,23.70
2018-09-02T21:39:47.285Z,23.60
2018-09-02T21:42:17.352Z,23.60
2018-09-02T21:44:46.872Z,23.60
2018-09-02T21:47:16.300Z,23.70
2018-09-02T21:49:46.020Z,23.70
2018-09-02T21:52:16.756Z,23.70
2018-09-02T21:54:46.629Z,23.70
2018-09-02T21:57:17.179Z,23.60
2018-09-02T21:59:46.882Z,23.70
2018-09-02T22:02:16.852Z,23.50
2018-09-02T22:04:48.888Z,23.50
2018-09-02T22:07:17.838Z,23.50
2018-09-02T22:09:47.686Z,23.50
2018-09-02T22:12:19.527Z,23.50
2018-09-02T22:14:49.175Z,23.40
2018-09-02T22:17:18.892Z,23.40
2018-09-02T22:19:49.487Z,23.40
2018-09-02T22:22:20.170Z,23.40
2018-09-02T22:24:50.806Z,23.40
2018-09-02T22:27:20.712Z,23.40
2018-09-02T22:29:50.811Z,23.40
2018-09-02T22:32:20.327Z,23.30
2018-09-02T22:34:50.600Z,23.30
2018-09-02T22:37:20.006Z,23.30
2018-09-02T22:39:49.759Z,23.30
2018-09-02T22:42:19.061Z,23.30
2018-09-02T22:44:48.946Z,23.30
2018-09-02T22:47:18.762Z,23.20
2018-09-02T22:49:48.530Z,23.10
2018-09-02T22:52:18.479Z,23.10
2018-09-02T22:54:47.584Z,23.00
2018-09-02T22:57:17.551Z,22.90
2018-09-02T22:59:47.784Z,22.90
2018-09-02T23:02:17.181Z,22.80
2018-09-02T23:04:48.097Z,22.60
2018-09-02T23:07:18.577Z,22.60
2018-09-02T23:09:48.833Z,22.50
2018-09-02T23:12:19.017Z,22.40
2018-09-02T23:14:48.842Z,22.40
2018-09-02T23:17:18.468Z,22.30
2018-09-02T23:19:48.850Z,22.30
2018-09-02T23:22:18.501Z,22.20
2018-09-02T23:24:48.726Z,22.10
2018-09-02T23:27:19.329Z,22.10
2018-09-02T23:29:50.241Z,22.10
2018-09-02T23:32:20.309Z,22.10
2018-09-02T23:34:50.149Z,22.00
2018-09-02T23:37:19.958Z,21.90
2018-09-02T23:39:51.512Z,22.00
2018-09-02T23:42:21.510Z,21.90
2018-09-02T23:44:51.007Z,21.80
2018-09-02T23:47:20.935Z,21.80
2018-09-02T23:49:51.049Z,21.80
2018-09-02T23:52:22.167Z,21.80
2018-09-02T23:54:52.267Z,21.90
2018-09-02T23:57:21.726Z,21.80
2018-09-02T23:59:52.539Z,21.70
